Time;durP1;ratioP1;P1;durP2;ratioP2;P2;SDS_P1;SDS_P2;PMS_P1;PMS_P2;Temp;Humidity;BMP_temperature;BMP_pressure;BME280_temperature;BME280_humidity;BME280_pressure;Samples;Min_cycle;Max_cycle;Signal;HPM_P1;HPM_P2
2022/09/10 00:00:33;;;;;;;;;;;14.20;99.90;;;;;;6298878;22;19918;-80
2022/09/10 00:03:07;;;;;;;;;;;14.20;99.90;;;;;;6252308;22;19918;-76
2022/09/10 00:05:42;;;;;;;;;;;14.20;99.90;;;;;;6275458;22;19911;-77
2022/09/10 00:08:13;;;;;;;;;;;14.20;99.90;;;;;;6272754;22;19934;-77
2022/09/10 00:11:13;;;;;;;;;;;14.10;99.90;;;;;;6275261;22;19911;-76
2022/09/10 05:56:59;;;;;;;;;;;14.50;99.90;;;;;;6339549;22;19918;-77
2022/09/10 05:59:24;;;;;;;;;;;14.50;99.90;;;;;;6313705;22;19910;-78
2022/09/10 06:01:50;;;;;;;;;;;14.50;99.90;;;;;;6287122;22;20356;-77
2022/09/10 06:04:19;;;;;;;;;;;14.50;99.90;;;;;;6286904;22;19972;-76
2022/09/10 06:06:46;;;;;;;;;;;14.50;99.90;;;;;;6287314;22;19918;-78
2022/09/10 06:09:12;;;;;;;;;;;14.40;99.90;;;;;;6286540;22;19911;-79
2022/09/10 06:11:38;;;;;;;;;;;14.50;99.90;;;;;;6287342;22;19977;-78
2022/09/10 06:14:04;;;;;;;;;;;14.50;99.90;;;;;;6312394;22;19965;-73
2022/09/10 06:16:33;;;;;;;;;;;14.50;99.90;;;;;;6287269;22;19972;-72
2022/09/10 06:19:02;;;;;;;;;;;14.50;99.90;;;;;;6312735;22;19910;-74
2022/09/10 06:21:42;;;;;;;;;;;14.60;99.90;;;;;;6312493;22;20421;-75
2022/09/10 06:42:17;;;;;;;;;;;14.90;99.90;;;;;;6339710;22;20228;-84
2022/09/10 06:45:17;;;;;;;;;;;14.90;99.90;;;;;;6272259;22;19910;-76
2022/09/10 06:51:13;;;;;;;;;;;14.90;99.90;;;;;;6275090;22;19910;-80
2022/09/10 06:53:45;;;;;;;;;;;14.90;99.90;;;;;;6224211;22;19911;-79
2022/09/10 06:56:32;;;;;;;;;;;15.00;99.90;;;;;;6231428;22;19915;-78
2022/09/10 06:59:34;;;;;;;;;;;15.00;99.90;;;;;;6226316;22;19916;-76
2022/09/10 07:02:25;;;;;;;;;;;15.10;99.90;;;;;;6252983;22;19910;-81
2022/09/10 07:08:13;;;;;;;;;;;15.00;99.90;;;;;;6249261;22;19911;-77
2022/09/10 07:10:39;;;;;;;;;;;15.10;99.90;;;;;;6248928;22;19918;-78
2022/09/10 07:13:05;;;;;;;;;;;15.00;99.90;;;;;;6249280;22;19911;-78
2022/09/10 07:15:32;;;;;;;;;;;15.10;99.90;;;;;;6275005;22;19933;-78
2022/09/10 07:17:57;;;;;;;;;;;15.20;99.90;;;;;;6312354;22;19950;-78
2022/09/10 07:20:24;;;;;;;;;;;15.20;99.90;;;;;;6284823;22;19976;-77
2022/09/10 07:22:54;;;;;;;;;;;15.30;99.90;;;;;;6285712;22;19911;-78
2022/09/10 07:25:20;;;;;;;;;;;15.40;99.90;;;;;;6311377;22;19983;-81
2022/09/10 07:27:45;;;;;;;;;;;15.50;99.90;;;;;;6310910;22;20370;-79
2022/09/10 07:30:21;;;;;;;;;;;15.60;99.90;;;;;;6311670;22;19925;-79
2022/09/10 07:32:48;;;;;;;;;;;15.60;99.90;;;;;;6260663;22;20114;-76
2022/09/10 07:35:14;;;;;;;;;;;15.70;99.90;;;;;;6286482;22;19911;-79
2022/09/10 07:37:42;;;;;;;;;;;15.80;99.90;;;;;;6286162;22;19920;-78
2022/09/10 07:40:08;;;;;;;;;;;15.80;99.90;;;;;;6285904;22;20225;-77
2022/09/10 07:42:34;;;;;;;;;;;15.90;99.90;;;;;;6286700;22;19915;-77
2022/09/10 07:45:00;;;;;;;;;;;16.00;99.90;;;;;;6285979;22;19914;-78
2022/09/10 07:47:26;;;;;;;;;;;16.00;99.90;;;;;;6312221;22;19952;-78
2022/09/10 07:49:51;;;;;;;;;;;16.10;99.90;;;;;;6286006;22;19938;-77
2022/09/10 07:52:17;;;;;;;;;;;16.20;99.90;;;;;;6312303;22;19925;-77
2022/09/10 07:54:43;;;;;;;;;;;16.30;99.90;;;;;;6312086;22;19972;-78
2022/09/10 07:57:08;;;;;;;;;;;16.40;99.90;;;;;;6286237;22;19993;-78
2022/09/10 07:59:34;;;;;;;;;;;16.40;99.90;;;;;;6312234;22;19914;-79
2022/09/10 08:02:00;;;;;;;;;;;16.50;99.90;;;;;;6286039;22;19976;-77
2022/09/10 08:04:25;;;;;;;;;;;16.60;99.90;;;;;;6286002;22;20147;-77
2022/09/10 08:06:51;;;;;;;;;;;16.50;99.90;;;;;;6286539;22;19917;-77
2022/09/10 08:09:19;;;;;;;;;;;16.50;99.90;;;;;;6286069;22;19914;-78
2022/09/10 08:11:45;;;;;;;;;;;16.50;99.90;;;;;;6286329;22;19911;-78
2022/09/10 08:14:12;;;;;;;;;;;16.60;99.90;;;;;;6286437;22;20377;-79
2022/09/10 08:16:38;;;;;;;;;;;16.50;99.90;;;;;;6286327;22;19958;-77
2022/09/10 08:19:04;;;;;;;;;;;16.50;99.90;;;;;;6286123;22;20202;-79
2022/09/10 08:21:30;;;;;;;;;;;16.60;99.90;;;;;;6312046;22;19911;-77
2022/09/10 08:23:56;;;;;;;;;;;16.60;99.90;;;;;;6286310;22;19918;-78
2022/09/10 08:26:26;;;;;;;;;;;16.50;99.90;;;;;;6285617;22;19911;-80
2022/09/10 08:28:52;;;;;;;;;;;16.50;99.90;;;;;;6286462;22;19985;-80
2022/09/10 08:31:18;;;;;;;;;;;16.60;99.90;;;;;;6285824;22;20305;-79
2022/09/10 08:33:53;;;;;;;;;;;16.60;99.90;;;;;;6288086;22;19910;-78
2022/09/10 08:36:20;;;;;;;;;;;16.80;99.90;;;;;;6313654;22;19911;-79
2022/09/10 08:55:16;;;;;;;;;;;17.30;99.90;;;;;;6326599;22;19929;-77
2022/09/10 08:57:51;;;;;;;;;;;17.30;99.90;;;;;;6287925;22;19948;-74
2022/09/10 09:00:22;;;;;;;;;;;17.30;99.90;;;;;;6313828;22;20320;-79
2022/09/10 09:02:51;;;;;;;;;;;17.40;99.90;;;;;;6288208;22;19910;-77
2022/09/10 09:05:18;;;;;;;;;;;17.30;99.90;;;;;;6287897;22;19946;-79
2022/09/10 09:07:44;;;;;;;;;;;17.40;99.90;;;;;;6313894;22;19956;-78
2022/09/10 09:10:24;;;;;;;;;;;17.40;99.90;;;;;;6313657;22;20263;-76
2022/09/10 09:13:02;;;;;;;;;;;17.40;99.90;;;;;;6313733;22;19917;-81
2022/09/10 09:15:40;;;;;;;;;;;17.30;99.90;;;;;;6313286;22;19911;-82
2022/09/10 09:18:17;;;;;;;;;;;17.40;99.90;;;;;;6287966;22;19918;-82
2022/09/10 09:20:43;;;;;;;;;;;17.50;99.90;;;;;;6287719;22;19967;-80
2022/09/10 09:29:59;;;;;;;;;;;17.50;99.90;;;;;;6340572;22;19909;-73
2022/09/10 09:32:36;;;;;;;;;;;17.50;99.90;;;;;;6313332;22;19917;-81
2022/09/10 09:35:33;;;;;;;;;;;17.40;99.90;;;;;;6340704;22;19910;-79
2022/09/10 09:41:29;;;;;;;;;;;17.40;99.90;;;;;;6340264;22;20274;-73
2022/09/10 09:50:38;;;;;;;;;;;17.50;99.90;;;;;;6277281;22;19935;-78
2022/09/10 09:53:04;;;;;;;;;;;17.60;99.90;;;;;;6287477;22;19981;-78
2022/09/10 09:55:34;;;;;;;;;;;17.70;99.90;;;;;;6287251;22;19915;-79
2022/09/10 10:01:13;;;;;;;;;;;17.80;99.90;;;;;;6219305;23;20043;-79
2022/09/10 10:03:57;;;;;;;;;;;17.90;99.90;;;;;;6284831;22;19963;-79
2022/09/10 10:06:24;;;;;;;;;;;17.90;99.90;;;;;;6312091;22;20352;-77
2022/09/10 10:09:06;;;;;;;;;;;17.90;99.90;;;;;;6312602;22;19986;-80
2022/09/10 10:15:04;;;;;;;;;;;17.90;99.90;;;;;;6244522;23;19912;-77
2022/09/10 10:50:45;;;;;;;;;;;18.90;99.90;;;;;;6339077;22;19933;-77
2022/09/10 10:53:17;;;;;;;;;;;19.00;99.90;;;;;;6283310;22;19914;-80
2022/09/10 10:55:49;;;;;;;;;;;19.00;99.90;;;;;;6310103;22;19994;-75
2022/09/10 10:58:38;;;;;;;;;;;19.10;99.90;;;;;;6285389;22;19922;-82
2022/09/10 11:01:12;;;;;;;;;;;19.20;99.90;;;;;;6312457;22;19910;-79
2022/09/10 11:03:43;;;;;;;;;;;19.20;99.90;;;;;;6312057;22;19910;-79
2022/09/10 11:06:20;;;;;;;;;;;19.50;99.90;;;;;;6312430;22;19910;-81
2022/09/10 11:09:07;;;;;;;;;;;19.40;99.90;;;;;;6286533;22;19910;-82
2022/09/10 11:11:52;;;;;;;;;;;19.50;99.90;;;;;;6311223;22;20224;-79
2022/09/10 11:14:43;;;;;;;;;;;19.50;99.90;;;;;;6312191;22;20005;-81
2022/09/10 11:17:17;;;;;;;;;;;19.60;99.90;;;;;;6286962;22;20232;-79
2022/09/10 11:20:02;;;;;;;;;;;19.80;99.90;;;;;;6312145;22;19910;-78
2022/09/10 11:22:30;;;;;;;;;;;19.80;99.90;;;;;;6286704;22;19917;-78
2022/09/10 11:25:00;;;;;;;;;;;19.80;99.90;;;;;;6312216;22;19910;-75
2022/09/10 11:27:31;;;;;;;;;;;19.70;99.90;;;;;;6310537;22;20344;-77
2022/09/10 11:30:02;;;;;;;;;;;19.70;99.90;;;;;;6285389;22;19970;-72
2022/09/10 11:32:46;;;;;;;;;;;19.60;99.90;;;;;;6310793;22;19915;-79
2022/09/10 11:35:34;;;;;;;;;;;19.80;99.90;;;;;;6286293;22;19915;-78
2022/09/10 11:38:10;;;;;;;;;;;19.90;99.90;;;;;;6284638;22;19917;-77
2022/09/10 11:40:59;;;;;;;;;;;20.00;99.90;;;;;;6292880;22;19937;-80
2022/09/10 11:43:36;;;;;;;;;;;19.80;99.90;;;;;;6285801;22;20324;-78
2022/09/10 11:46:15;;;;;;;;;;;20.10;99.90;;;;;;6285245;22;20224;-83
2022/09/10 11:49:02;;;;;;;;;;;20.20;99.90;;;;;;6311860;22;20240;-83
2022/09/10 11:51:29;;;;;;;;;;;20.30;99.90;;;;;;6285869;22;19910;-74
2022/09/10 11:53:55;;;;;;;;;;;20.20;99.90;;;;;;6311448;22;19946;-75
2022/09/10 11:56:30;;;;;;;;;;;20.30;99.90;;;;;;6311826;22;19925;-78
2022/09/10 11:59:15;;;;;;;;;;;20.30;99.90;;;;;;6286342;22;19911;-76
2022/09/10 12:01:48;;;;;;;;;;;20.40;99.90;;;;;;6312164;22;19975;-77
2022/09/10 12:04:32;;;;;;;;;;;20.40;99.90;;;;;;6312192;22;19981;-76
2022/09/10 12:07:03;;;;;;;;;;;20.40;99.90;;;;;;6286323;22;20317;-76
2022/09/10 12:09:34;;;;;;;;;;;20.40;99.90;;;;;;6312499;22;19911;-75
2022/09/10 12:12:16;;;;;;;;;;;20.30;99.90;;;;;;6286411;22;19911;-76
2022/09/10 12:14:42;;;;;;;;;;;20.30;99.90;;;;;;6311974;22;19918;-75
2022/09/10 12:17:22;;;;;;;;;;;20.30;99.90;;;;;;6286052;22;19911;-76
2022/09/10 12:19:50;;;;;;;;;;;20.30;99.90;;;;;;6286036;22;20010;-77
2022/09/10 12:22:20;;;;;;;;;;;20.30;99.90;;;;;;6311664;22;20303;-75
2022/09/10 12:24:58;;;;;;;;;;;20.30;99.90;;;;;;6311966;22;19919;-75
2022/09/10 12:27:42;;;;;;;;;;;20.20;99.90;;;;;;6311819;22;20275;-76
2022/09/10 12:30:32;;;;;;;;;;;20.20;99.90;;;;;;6286501;22;19911;-75
2022/09/10 12:32:59;;;;;;;;;;;20.30;99.90;;;;;;6292205;22;20317;-75
2022/09/10 12:35:34;;;;;;;;;;;20.30;99.90;;;;;;6311935;22;19914;-75
2022/09/10 12:38:18;;;;;;;;;;;20.20;99.90;;;;;;6286272;22;19946;-76
2022/09/10 12:40:48;;;;;;;;;;;20.20;99.90;;;;;;6311637;22;19934;-77
2022/09/10 12:43:43;;;;;;;;;;;20.30;99.90;;;;;;6312033;22;19918;-78
2022/09/10 12:46:09;;;;;;;;;;;20.40;99.90;;;;;;6258930;22;19993;-77
2022/09/10 12:48:38;;;;;;;;;;;20.40;99.90;;;;;;6286140;22;20003;-76
2022/09/10 12:51:19;;;;;;;;;;;20.50;99.90;;;;;;6286030;22;19989;-77
2022/09/10 12:53:49;;;;;;;;;;;20.50;99.90;;;;;;6311599;22;19911;-77
2022/09/10 12:56:21;;;;;;;;;;;20.80;99.90;;;;;;6286113;22;19979;-76
2022/09/10 12:58:57;;;;;;;;;;;20.90;99.90;;;;;;6286110;22;19915;-75
2022/09/10 13:01:45;;;;;;;;;;;20.80;99.90;;;;;;6311790;22;20232;-77
2022/09/10 13:04:16;;;;;;;;;;;20.90;99.90;;;;;;6311520;22;20598;-77
2022/09/10 13:06:42;;;;;;;;;;;20.90;99.90;;;;;;6312021;22;19942;-76
2022/09/10 13:09:16;;;;;;;;;;;20.80;99.90;;;;;;6286000;22;19934;-76
2022/09/10 13:11:44;;;;;;;;;;;20.70;99.90;;;;;;6285816;22;19915;-78
2022/09/10 13:14:13;;;;;;;;;;;20.60;99.90;;;;;;6311605;22;19937;-76
2022/09/10 13:16:40;;;;;;;;;;;20.40;99.90;;;;;;6312147;22;19914;-78
2022/09/10 13:19:11;;;;;;;;;;;20.50;99.90;;;;;;6312609;22;19949;-76
2022/09/10 13:21:37;;;;;;;;;;;20.50;99.90;;;;;;6313688;22;19914;-77
2022/09/10 13:24:23;;;;;;;;;;;20.60;99.90;;;;;;6313542;22;19918;-76
2022/09/10 13:26:51;;;;;;;;;;;20.70;99.90;;;;;;6313613;22;19950;-75
2022/09/10 13:29:36;;;;;;;;;;;20.90;99.90;;;;;;6287924;22;19915;-78
2022/09/10 13:32:10;;;;;;;;;;;21.00;99.90;;;;;;6286368;22;19976;-77
2022/09/10 13:34:54;;;;;;;;;;;21.00;99.90;;;;;;6288227;22;19915;-76
2022/09/10 13:37:32;;;;;;;;;;;21.00;99.90;;;;;;6313552;22;20377;-77
2022/09/10 13:40:20;;;;;;;;;;;21.20;99.90;;;;;;6289304;22;19915;-77
2022/09/10 13:42:49;;;;;;;;;;;21.20;99.90;;;;;;6314512;22;19922;-78
2022/09/10 13:45:33;;;;;;;;;;;21.20;99.90;;;;;;6330112;22;19903;-76
2022/09/10 13:48:01;;;;;;;;;;;21.20;99.90;;;;;;6311544;22;19933;-76
2022/09/10 13:50:38;;;;;;;;;;;20.80;99.90;;;;;;6337044;22;19903;-77
2022/09/10 13:53:07;;;;;;;;;;;20.90;99.90;;;;;;6311047;22;19929;-77
2022/09/10 13:55:33;;;;;;;;;;;20.80;99.90;;;;;;6310389;22;19903;-76
2022/09/10 13:58:03;;;;;;;;;;;20.90;99.90;;;;;;6282619;22;20237;-76
2022/09/10 14:00:40;;;;;;;;;;;20.80;99.90;;;;;;6334149;22;19915;-76
2022/09/10 14:03:14;;;;;;;;;;;20.90;99.90;;;;;;6282256;22;19915;-77
2022/09/10 14:05:47;;;;;;;;;;;20.90;99.90;;;;;;6308156;22;19922;-77
2022/09/10 14:08:16;;;;;;;;;;;21.00;99.90;;;;;;6334164;22;19968;-76
2022/09/10 14:10:50;;;;;;;;;;;21.00;99.90;;;;;;6282027;22;19918;-76
2022/09/10 14:13:17;;;;;;;;;;;20.90;99.90;;;;;;6308092;22;19918;-77
2022/09/10 14:15:43;;;;;;;;;;;20.80;99.90;;;;;;6281824;22;19918;-76
2022/09/10 14:18:09;;;;;;;;;;;20.50;99.90;;;;;;6281939;22;19915;-76
2022/09/10 14:20:35;;;;;;;;;;;20.60;99.90;;;;;;6282414;22;20210;-76
2022/09/10 14:23:04;;;;;;;;;;;20.60;99.90;;;;;;6282332;22;19937;-75
2022/09/10 14:25:30;;;;;;;;;;;20.70;99.90;;;;;;6308399;22;19915;-77
2022/09/10 14:28:14;;;;;;;;;;;20.60;99.90;;;;;;6308025;22;19922;-76
2022/09/10 14:30:40;;;;;;;;;;;20.40;99.90;;;;;;6308125;22;20218;-75
2022/09/10 14:33:29;;;;;;;;;;;20.30;99.90;;;;;;6308107;22;19922;-76
2022/09/10 14:35:56;;;;;;;;;;;20.30;99.90;;;;;;6269713;22;19915;-75
2022/09/10 14:38:27;;;;;;;;;;;20.20;99.90;;;;;;6307841;22;19914;-77
2022/09/10 14:41:00;;;;;;;;;;;20.20;99.90;;;;;;6282167;22;19922;-76
2022/09/10 14:43:28;;;;;;;;;;;20.10;99.90;;;;;;6307907;22;19946;-75
2022/09/10 14:45:53;;;;;;;;;;;20.20;99.90;;;;;;6307775;22;19915;-76
2022/09/10 14:48:25;;;;;;;;;;;20.10;99.90;;;;;;6340657;22;19918;-75
2022/09/10 14:51:00;;;;;;;;;;;20.10;99.90;;;;;;6313043;22;19915;-76
2022/09/10 14:53:26;;;;;;;;;;;20.00;99.90;;;;;;6312715;22;19911;-75
2022/09/10 14:55:51;;;;;;;;;;;20.00;99.90;;;;;;6286660;22;19940;-75
2022/09/10 14:58:17;;;;;;;;;;;20.00;99.90;;;;;;6312984;22;19918;-75
2022/09/10 15:00:44;;;;;;;;;;;20.10;99.90;;;;;;6313007;22;19950;-75
2022/09/10 15:03:12;;;;;;;;;;;20.00;99.90;;;;;;6312690;22;20309;-74
2022/09/10 15:05:38;;;;;;;;;;;19.90;99.90;;;;;;6340710;22;19983;-76
2022/09/10 15:08:03;;;;;;;;;;;20.00;99.90;;;;;;6312863;22;19915;-76
2022/09/10 15:10:29;;;;;;;;;;;19.90;99.90;;;;;;6287094;22;20233;-76
2022/09/10 15:12:55;;;;;;;;;;;19.90;99.90;;;;;;6287091;22;20351;-77
2022/09/10 15:15:21;;;;;;;;;;;19.70;99.90;;;;;;6286463;22;19929;-75
2022/09/10 15:17:47;;;;;;;;;;;19.70;99.90;;;;;;6286660;22;19981;-75
2022/09/10 15:20:13;;;;;;;;;;;19.70;99.90;;;;;;6312736;22;19911;-76
2022/09/10 15:22:39;;;;;;;;;;;19.60;99.90;;;;;;6312429;22;20242;-75
2022/09/10 15:25:05;;;;;;;;;;;19.50;99.90;;;;;;6286448;22;19922;-75
2022/09/10 15:27:31;;;;;;;;;;;19.50;99.90;;;;;;6286828;22;19921;-75
2022/09/10 15:29:56;;;;;;;;;;;19.50;99.90;;;;;;6286852;22;20268;-76
2022/09/10 15:32:22;;;;;;;;;;;19.50;99.90;;;;;;6286835;22;19910;-75
2022/09/10 15:34:49;;;;;;;;;;;19.50;99.90;;;;;;6312047;22;19910;-77
2022/09/10 15:37:15;;;;;;;;;;;19.50;99.90;;;;;;6312240;22;19990;-76
2022/09/10 15:39:41;;;;;;;;;;;19.40;99.90;;;;;;6286393;22;20465;-76
2022/09/10 15:42:06;;;;;;;;;;;19.40;99.90;;;;;;6286159;22;19910;-76
2022/09/10 15:44:33;;;;;;;;;;;19.30;99.90;;;;;;6285648;22;19914;-75
2022/09/10 15:46:59;;;;;;;;;;;19.30;99.90;;;;;;6311908;22;20339;-75
2022/09/10 15:49:24;;;;;;;;;;;19.30;99.90;;;;;;6312599;22;19921;-75
2022/09/10 15:51:50;;;;;;;;;;;19.30;99.90;;;;;;6286718;22;20279;-76
2022/09/10 15:54:16;;;;;;;;;;;19.30;99.90;;;;;;6286496;22;19921;-74
2022/09/10 15:56:41;;;;;;;;;;;19.20;99.90;;;;;;6312294;22;20005;-75
2022/09/10 15:59:10;;;;;;;;;;;19.20;99.90;;;;;;6286759;22;20032;-74
2022/09/10 16:01:37;;;;;;;;;;;19.20;99.90;;;;;;6312388;22;19940;-74
2022/09/10 16:04:03;;;;;;;;;;;19.20;99.90;;;;;;6286290;22;19985;-76
2022/09/10 16:06:30;;;;;;;;;;;19.20;99.90;;;;;;6286431;22;19957;-76
2022/09/10 16:09:00;;;;;;;;;;;19.20;99.90;;;;;;6312505;22;20233;-76
2022/09/10 16:11:30;;;;;;;;;;;19.10;99.90;;;;;;6312552;22;19921;-75
2022/09/10 16:13:56;;;;;;;;;;;19.10;99.90;;;;;;6286346;22;19937;-76
2022/09/10 16:16:23;;;;;;;;;;;19.00;99.90;;;;;;6312527;22;19926;-76
2022/09/10 16:18:51;;;;;;;;;;;18.90;99.90;;;;;;6312360;22;19952;-75
2022/09/10 16:21:18;;;;;;;;;;;18.90;99.90;;;;;;6311871;22;19922;-75
2022/09/10 16:23:45;;;;;;;;;;;18.80;99.90;;;;;;6312487;22;20309;-77
2022/09/10 16:26:14;;;;;;;;;;;18.80;99.90;;;;;;6286428;22;19964;-76
2022/09/10 16:28:49;;;;;;;;;;;18.80;99.90;;;;;;6286375;22;20292;-76
2022/09/10 16:31:16;;;;;;;;;;;18.80;99.90;;;;;;6286112;22;19915;-75
2022/09/10 16:33:42;;;;;;;;;;;18.80;99.90;;;;;;6312412;22;20294;-75
2022/09/10 16:36:08;;;;;;;;;;;18.70;99.90;;;;;;6286519;22;19911;-74
2022/09/10 16:38:34;;;;;;;;;;;18.80;99.90;;;;;;6312259;22;20309;-76
2022/09/10 16:41:00;;;;;;;;;;;18.80;99.90;;;;;;6286261;22;19986;-76
2022/09/10 16:43:26;;;;;;;;;;;18.70;99.90;;;;;;6286988;22;19910;-75
2022/09/10 16:45:52;;;;;;;;;;;18.70;99.90;;;;;;6311794;22;19911;-76
2022/09/10 16:48:17;;;;;;;;;;;18.70;99.90;;;;;;6286320;22;19914;-76
2022/09/10 16:50:43;;;;;;;;;;;18.60;99.90;;;;;;6286443;22;19914;-75
2022/09/10 16:53:09;;;;;;;;;;;18.60;99.90;;;;;;6312105;22;20015;-76
2022/09/10 16:55:34;;;;;;;;;;;18.60;99.90;;;;;;6313922;22;19914;-75
2022/09/10 16:58:00;;;;;;;;;;;18.60;99.90;;;;;;6313884;22;20339;-76
2022/09/10 17:00:25;;;;;;;;;;;18.50;99.90;;;;;;6288307;22;19910;-75
2022/09/10 17:02:51;;;;;;;;;;;18.50;99.90;;;;;;6287824;22;20291;-76
2022/09/10 17:05:17;;;;;;;;;;;18.40;99.90;;;;;;6288301;22;19964;-76
2022/09/10 17:07:42;;;;;;;;;;;18.40;99.90;;;;;;6313999;22;19933;-76
2022/09/10 17:10:08;;;;;;;;;;;18.30;99.90;;;;;;6288087;22;20373;-75
2022/09/10 17:12:34;;;;;;;;;;;18.20;99.90;;;;;;6288363;22;19917;-76
2022/09/10 17:14:59;;;;;;;;;;;18.10;99.90;;;;;;6313593;22;19911;-75
2022/09/10 17:17:26;;;;;;;;;;;18.10;99.90;;;;;;6287865;22;19965;-76
2022/09/10 17:19:51;;;;;;;;;;;18.00;99.90;;;;;;6314247;22;19989;-75
2022/09/10 17:22:17;;;;;;;;;;;17.90;99.90;;;;;;6313926;22;19915;-73
2022/09/10 17:24:43;;;;;;;;;;;17.90;99.90;;;;;;6313584;22;19945;-76
2022/09/10 17:27:10;;;;;;;;;;;17.80;99.90;;;;;;6288621;22;19910;-76
2022/09/10 17:29:37;;;;;;;;;;;17.70;99.90;;;;;;6288191;22;19914;-77
2022/09/10 17:32:03;;;;;;;;;;;17.80;99.90;;;;;;6287607;22;19936;-76
2022/09/10 17:34:28;;;;;;;;;;;17.70;99.90;;;;;;6313746;22;19911;-76
2022/09/10 17:36:54;;;;;;;;;;;17.60;99.90;;;;;;6313174;22;19921;-76
2022/09/10 17:39:19;;;;;;;;;;;17.60;99.90;;;;;;6287547;22;19989;-74
2022/09/10 17:41:45;;;;;;;;;;;17.50;99.90;;;;;;6313540;22;19918;-74
2022/09/10 17:44:12;;;;;;;;;;;17.40;99.90;;;;;;6287827;22;19921;-75
2022/09/10 17:46:38;;;;;;;;;;;17.40;99.90;;;;;;6287123;22;19963;-76
2022/09/10 17:49:04;;;;;;;;;;;17.30;99.90;;;;;;6313087;22;19910;-75
2022/09/10 17:51:30;;;;;;;;;;;17.30;99.90;;;;;;6287690;22;19911;-77
2022/09/10 17:53:56;;;;;;;;;;;17.20;99.90;;;;;;6313176;22;20205;-76
2022/09/10 17:56:23;;;;;;;;;;;17.20;99.90;;;;;;6287159;22;19922;-75
2022/09/10 17:58:49;;;;;;;;;;;17.10;99.90;;;;;;6312884;22;19915;-75
2022/09/10 18:01:37;;;;;;;;;;;17.10;99.90;;;;;;6313135;22;19946;-76
2022/09/10 18:04:07;;;;;;;;;;;17.00;99.90;;;;;;6287208;22;19911;-75
2022/09/10 18:06:35;;;;;;;;;;;16.90;99.90;;;;;;6312775;22;19910;-77
2022/09/10 18:09:01;;;;;;;;;;;16.80;99.90;;;;;;6287522;22;19910;-75
2022/09/10 18:11:28;;;;;;;;;;;16.70;99.90;;;;;;6287047;22;19910;-75
2022/09/10 18:13:55;;;;;;;;;;;16.60;99.90;;;;;;6287036;22;19917;-77
2022/09/10 18:16:23;;;;;;;;;;;16.60;99.90;;;;;;6312929;22;20305;-74
2022/09/10 18:18:51;;;;;;;;;;;16.50;99.90;;;;;;6287016;22;19918;-77
2022/09/10 18:21:18;;;;;;;;;;;16.50;99.90;;;;;;6313363;22;19964;-76
2022/09/10 18:23:49;;;;;;;;;;;16.40;99.90;;;;;;6287276;22;19911;-76
2022/09/10 18:26:16;;;;;;;;;;;16.40;99.90;;;;;;6313338;22;20369;-77
2022/09/10 18:28:42;;;;;;;;;;;16.30;99.90;;;;;;6287274;22;19921;-76
2022/09/10 18:31:09;;;;;;;;;;;16.30;99.90;;;;;;6312208;22;19917;-76
2022/09/10 18:33:37;;;;;;;;;;;16.30;99.90;;;;;;6287501;22;19914;-77
2022/09/10 18:36:12;;;;;;;;;;;16.20;99.90;;;;;;6286586;22;20274;-71
2022/09/10 18:38:38;;;;;;;;;;;16.40;99.90;;;;;;6312554;22;19911;-76
2022/09/10 18:41:04;;;;;;;;;;;16.20;99.90;;;;;;6312748;22;19933;-75
2022/09/10 18:43:30;;;;;;;;;;;16.10;99.90;;;;;;6312589;22;19911;-73
2022/09/10 18:46:11;;;;;;;;;;;16.10;99.90;;;;;;6285732;22;19910;-73
2022/09/10 18:48:37;;;;;;;;;;;16.00;99.90;;;;;;6275946;22;19922;-76
2022/09/10 18:58:02;;;;;;;;;;;15.90;99.90;;;;;;6213674;23;19962;-73
2022/09/10 19:00:29;;;;;;;;;;;15.80;99.90;;;;;;6162109;23;19970;-74
2022/09/10 19:02:54;;;;;;;;;;;15.70;99.90;;;;;;6138045;23;19911;-75
2022/09/10 19:05:20;;;;;;;;;;;15.70;99.90;;;;;;6238855;22;20377;-71
2022/09/10 19:07:49;;;;;;;;;;;15.60;99.90;;;;;;6275615;22;20359;-78
2022/09/10 19:10:14;;;;;;;;;;;15.60;99.90;;;;;;6275608;22;19954;-73
2022/09/10 19:12:40;;;;;;;;;;;15.50;99.90;;;;;;6275775;22;19911;-73
2022/09/10 19:15:06;;;;;;;;;;;15.50;99.90;;;;;;6249716;22;20296;-75
2022/09/10 19:17:31;;;;;;;;;;;15.40;99.90;;;;;;6250057;22;19990;-74
2022/09/10 19:19:59;;;;;;;;;;;15.40;99.90;;;;;;6249477;22;19954;-73
2022/09/10 19:22:25;;;;;;;;;;;15.40;99.90;;;;;;6249452;22;19911;-72
2022/09/10 19:24:51;;;;;;;;;;;15.40;99.90;;;;;;6249563;22;20203;-75
2022/09/10 19:27:16;;;;;;;;;;;15.40;99.90;;;;;;6275854;22;19911;-75
2022/09/10 19:29:43;;;;;;;;;;;15.50;99.90;;;;;;6250092;22;19992;-73
2022/09/10 19:32:10;;;;;;;;;;;15.50;99.90;;;;;;6275791;22;19917;-72
2022/09/10 19:34:35;;;;;;;;;;;15.50;99.90;;;;;;6275380;22;19918;-72
2022/09/10 19:37:01;;;;;;;;;;;15.50;99.90;;;;;;6249844;22;19919;-73
2022/09/10 19:39:27;;;;;;;;;;;15.60;99.90;;;;;;6249831;22;19915;-69
2022/09/10 19:41:52;;;;;;;;;;;15.70;99.90;;;;;;6275221;22;20237;-72
2022/09/10 19:44:19;;;;;;;;;;;15.80;99.90;;;;;;6275743;22;19911;-70
2022/09/10 19:46:44;;;;;;;;;;;15.90;99.90;;;;;;6284780;22;19915;-69
2022/09/10 19:49:11;;;;;;;;;;;15.90;99.90;;;;;;6306378;22;19917;-69
2022/09/10 19:51:37;;;;;;;;;;;15.90;99.90;;;;;;6280625;22;19914;-74
2022/09/10 19:54:05;;;;;;;;;;;16.10;99.90;;;;;;6306181;22;19911;-76
2022/09/10 19:56:36;;;;;;;;;;;16.10;99.90;;;;;;6306283;22;19922;-77
2022/09/10 19:59:07;;;;;;;;;;;16.00;99.90;;;;;;6280811;22;20272;-78
2022/09/10 20:05:04;;;;;;;;;;;16.10;99.90;;;;;;6269870;22;19918;-79
2022/09/10 20:07:30;;;;;;;;;;;16.00;99.90;;;;;;6280952;22;20276;-79
2022/09/10 20:09:56;;;;;;;;;;;15.90;99.90;;;;;;6306025;22;19950;-77
2022/09/10 23:54:29;;;;;;;;;;;14.50;99.90;;;;;;6328203;22;19914;-81
2022/09/10 23:57:36;;;;;;;;;;;;;;;;;;;;;
